sensor_id;sensor_type;location;lat;lon;timestamp;temperature;humidity
11320;DHT22;5715;48.234;14.320;2022-09-02T00:02:14;15.60;99.90
11320;DHT22;5715;48.234;14.320;2022-09-02T00:05:04;15.50;99.90
11320;DHT22;5715;48.234;14.320;2022-09-02T00:07:53;15.40;99.90
11320;DHT22;5715;48.234;14.320;2022-09-02T00:10:42;15.40;99.90
11320;DHT22;5715;48.234;14.320;2022-09-02T00:13:32;15.30;99.90
11320;DHT22;5715;48.234;14.320;2022-09-02T00:16:21;15.30;99.90
11320;DHT22;5715;48.234;14.320;2022-09-02T00:19:11;15.20;99.90
11320;DHT22;5715;48.234;14.320;2022-09-02T00:22:00;15.20;99.90
11320;DHT22;5715;48.234;14.320;2022-09-02T00:24:48;15.10;99.90
11320;DHT22;5715;48.234;14.320;2022-09-02T00:27:36;15.00;99.90
11320;DHT22;5715;48.234;14.320;2022-09-02T00:30:23;14.90;99.90
11320;DHT22;5715;48.234;14.320;2022-09-02T00:33:13;14.80;99.90
11320;DHT22;5715;48.234;14.320;2022-09-02T00:36:03;14.70;99.90
11320;DHT22;5715;48.234;14.320;2022-09-02T00:38:52;14.70;99.90
11320;DHT22;5715;48.234;14.320;2022-09-02T00:41:41;14.60;99.90
11320;DHT22;5715;48.234;14.320;2022-09-02T00:44:29;14.60;99.90
11320;DHT22;5715;48.234;14.320;2022-09-02T00:47:17;14.50;99.90
11320;DHT22;5715;48.234;14.320;2022-09-02T00:50:08;14.50;99.90
11320;DHT22;5715;48.234;14.320;2022-09-02T00:53:02;14.40;99.90
11320;DHT22;5715;48.234;14.320;2022-09-02T00:55:56;14.50;99.90
11320;DHT22;5715;48.234;14.320;2022-09-02T00:58:45;14.40;99.90
11320;DHT22;5715;48.234;14.320;2022-09-02T01:01:34;14.50;99.90
11320;DHT22;5715;48.234;14.320;2022-09-02T01:04:21;14.40;99.90
11320;DHT22;5715;48.234;14.320;2022-09-02T01:07:09;14.40;99.90
11320;DHT22;5715;48.234;14.320;2022-09-02T01:09:57;14.40;99.90
11320;DHT22;5715;48.234;14.320;2022-09-02T01:12:45;14.40;99.90
11320;DHT22;5715;48.234;14.320;2022-09-02T01:15:38;14.30;99.90
11320;DHT22;5715;48.234;14.320;2022-09-02T01:18:29;14.30;99.90
11320;DHT22;5715;48.234;14.320;2022-09-02T01:21:17;14.30;99.90
11320;DHT22;5715;48.234;14.320;2022-09-02T01:24:06;14.30;99.90
11320;DHT22;5715;48.234;14.320;2022-09-02T01:26:56;14.30;99.90
11320;DHT22;5715;48.234;14.320;2022-09-02T01:29:45;14.20;99.90
11320;DHT22;5715;48.234;14.320;2022-09-02T01:32:41;14.20;99.90
11320;DHT22;5715;48.234;14.320;2022-09-02T01:35:29;14.20;99.90
11320;DHT22;5715;48.234;14.320;2022-09-02T01:38:18;14.20;99.90
11320;DHT22;5715;48.234;14.320;2022-09-02T01:41:07;14.10;99.90
11320;DHT22;5715;48.234;14.320;2022-09-02T01:43:54;14.10;99.90
11320;DHT22;5715;48.234;14.320;2022-09-02T01:46:42;14.10;99.90
11320;DHT22;5715;48.234;14.320;2022-09-02T01:49:30;14.20;99.90
11320;DHT22;5715;48.234;14.320;2022-09-02T01:52:23;14.20;99.90
11320;DHT22;5715;48.234;14.320;2022-09-02T01:55:12;14.20;99.90
11320;DHT22;5715;48.234;14.320;2022-09-02T01:58:00;14.20;99.90
11320;DHT22;5715;48.234;14.320;2022-09-02T02:00:48;14.10;99.90
11320;DHT22;5715;48.234;14.320;2022-09-02T02:03:37;14.10;99.90
11320;DHT22;5715;48.234;14.320;2022-09-02T02:06:24;14.10;99.90
11320;DHT22;5715;48.234;14.320;2022-09-02T02:09:12;14.10;99.90
11320;DHT22;5715;48.234;14.320;2022-09-02T02:12:03;14.10;99.90
11320;DHT22;5715;48.234;14.320;2022-09-02T02:14:52;14.10;99.90
11320;DHT22;5715;48.234;14.320;2022-09-02T02:17:42;14.10;99.90
11320;DHT22;5715;48.234;14.320;2022-09-02T02:20:30;14.00;99.90
11320;DHT22;5715;48.234;14.320;2022-09-02T02:23:17;14.00;99.90
11320;DHT22;5715;48.234;14.320;2022-09-02T02:26:05;14.10;99.90
11320;DHT22;5715;48.234;14.320;2022-09-02T02:28:53;14.10;99.90
11320;DHT22;5715;48.234;14.320;2022-09-02T02:31:42;14.10;99.90
11320;DHT22;5715;48.234;14.320;2022-09-02T02:34:29;14.10;99.90
11320;DHT22;5715;48.234;14.320;2022-09-02T02:37:17;14.00;99.90
11320;DHT22;5715;48.234;14.320;2022-09-02T02:40:11;14.00;99.90
11320;DHT22;5715;48.234;14.320;2022-09-02T02:42:59;14.00;99.90
11320;DHT22;5715;48.234;14.320;2022-09-02T02:45:47;14.00;99.90
11320;DHT22;5715;48.234;14.320;2022-09-02T02:48:36;13.90;99.90
11320;DHT22;5715;48.234;14.320;2022-09-02T02:51:24;13.90;99.90
11320;DHT22;5715;48.234;14.320;2022-09-02T02:54:12;13.90;99.90
11320;DHT22;5715;48.234;14.320;2022-09-02T02:57:00;13.90;99.90
11320;DHT22;5715;48.234;14.320;2022-09-02T02:59:49;13.90;99.90
11320;DHT22;5715;48.234;14.320;2022-09-02T03:02:36;13.90;99.90
11320;DHT22;5715;48.234;14.320;2022-09-02T03:05:25;13.90;99.90
11320;DHT22;5715;48.234;14.320;2022-09-02T03:08:14;13.80;99.90
11320;DHT22;5715;48.234;14.320;2022-09-02T03:11:05;13.90;99.90
11320;DHT22;5715;48.234;14.320;2022-09-02T03:13:54;13.90;99.90
11320;DHT22;5715;48.234;14.320;2022-09-02T03:16:42;13.90;99.90
11320;DHT22;5715;48.234;14.320;2022-09-02T03:19:29;13.80;99.90
11320;DHT22;5715;48.234;14.320;2022-09-02T03:22:17;13.80;99.90
11320;DHT22;5715;48.234;14.320;2022-09-02T03:25:08;13.80;99.90
11320;DHT22;5715;48.234;14.320;2022-09-02T03:28:00;13.80;99.90
11320;DHT22;5715;48.234;14.320;2022-09-02T03:30:48;13.80;99.90
11320;DHT22;5715;48.234;14.320;2022-09-02T03:33:36;13.80;99.90
11320;DHT22;5715;48.234;14.320;2022-09-02T03:36:27;13.80;99.90
11320;DHT22;5715;48.234;14.320;2022-09-02T03:39:19;13.70;99.90
11320;DHT22;5715;48.234;14.320;2022-09-02T03:42:07;13.70;99.90
11320;DHT22;5715;48.234;14.320;2022-09-02T03:45:07;13.60;99.90
11320;DHT22;5715;48.234;14.320;2022-09-02T03:47:56;13.50;99.90
11320;DHT22;5715;48.234;14.320;2022-09-02T03:50:45;13.40;99.90
11320;DHT22;5715;48.234;14.320;2022-09-02T03:53:34;13.40;99.90
11320;DHT22;5715;48.234;14.320;2022-09-02T03:56:21;13.40;99.90
11320;DHT22;5715;48.234;14.320;2022-09-02T03:59:10;13.30;99.90
11320;DHT22;5715;48.234;14.320;2022-09-02T04:01:59;13.20;99.90
11320;DHT22;5715;48.234;14.320;2022-09-02T04:04:49;13.20;99.90
11320;DHT22;5715;48.234;14.320;2022-09-02T04:07:38;13.10;99.90
11320;DHT22;5715;48.234;14.320;2022-09-02T04:10:28;13.10;99.90
11320;DHT22;5715;48.234;14.320;2022-09-02T04:13:17;13.10;99.90
11320;DHT22;5715;48.234;14.320;2022-09-02T04:16:06;13.00;99.90
11320;DHT22;5715;48.234;14.320;2022-09-02T04:19:00;13.00;99.90
11320;DHT22;5715;48.234;14.320;2022-09-02T04:21:49;13.00;99.90
11320;DHT22;5715;48.234;14.320;2022-09-02T04:24:36;13.00;99.90
11320;DHT22;5715;48.234;14.320;2022-09-02T04:27:24;13.00;99.90
11320;DHT22;5715;48.234;14.320;2022-09-02T04:30:12;13.00;99.90
11320;DHT22;5715;48.234;14.320;2022-09-02T04:33:02;13.00;99.90
11320;DHT22;5715;48.234;14.320;2022-09-02T04:35:50;12.90;99.90
11320;DHT22;5715;48.234;14.320;2022-09-02T04:38:38;12.90;99.90
11320;DHT22;5715;48.234;14.320;2022-09-02T04:41:28;12.80;99.90
11320;DHT22;5715;48.234;14.320;2022-09-02T04:44:17;12.70;99.90
11320;DHT22;5715;48.234;14.320;2022-09-02T04:47:04;12.70;99.90
11320;DHT22;5715;48.234;14.320;2022-09-02T04:49:52;12.70;99.90
11320;DHT22;5715;48.234;14.320;2022-09-02T04:52:41;12.70;99.90
11320;DHT22;5715;48.234;14.320;2022-09-02T04:55:28;12.70;99.90
11320;DHT22;5715;48.234;14.320;2022-09-02T04:58:16;12.70;99.90
11320;DHT22;5715;48.234;14.320;2022-09-02T05:01:07;12.70;99.90
11320;DHT22;5715;48.234;14.320;2022-09-02T05:04:07;12.80;99.90
11320;DHT22;5715;48.234;14.320;2022-09-02T05:06:56;12.90;99.90
11320;DHT22;5715;48.234;14.320;2022-09-02T05:09:48;13.00;99.90
11320;DHT22;5715;48.234;14.320;2022-09-02T05:12:36;13.30;99.90
11320;DHT22;5715;48.234;14.320;2022-09-02T05:15:26;13.60;99.90
11320;DHT22;5715;48.234;14.320;2022-09-02T05:18:15;14.20;99.90
11320;DHT22;5715;48.234;14.320;2022-09-02T05:21:06;14.80;99.90
11320;DHT22;5715;48.234;14.320;2022-09-02T05:23:53;15.10;99.90
11320;DHT22;5715;48.234;14.320;2022-09-02T05:26:41;15.50;99.90
11320;DHT22;5715;48.234;14.320;2022-09-02T05:29:30;16.10;99.90
11320;DHT22;5715;48.234;14.320;2022-09-02T05:32:18;16.70;99.90
11320;DHT22;5715;48.234;14.320;2022-09-02T05:35:06;16.90;99.90
11320;DHT22;5715;48.234;14.320;2022-09-02T05:37:54;17.20;99.90
11320;DHT22;5715;48.234;14.320;2022-09-02T05:40:47;17.50;99.90
11320;DHT22;5715;48.234;14.320;2022-09-02T05:43:36;17.50;99.90
11320;DHT22;5715;48.234;14.320;2022-09-02T05:46:25;17.70;99.90
11320;DHT22;5715;48.234;14.320;2022-09-02T05:49:14;17.80;99.90
11320;DHT22;5715;48.234;14.320;2022-09-02T05:52:07;17.50;99.90
11320;DHT22;5715;48.234;14.320;2022-09-02T05:54:56;17.00;99.90
11320;DHT22;5715;48.234;14.320;2022-09-02T05:57:43;16.70;99.90
11320;DHT22;5715;48.234;14.320;2022-09-02T06:00:32;16.40;99.90
11320;DHT22;5715;48.234;14.320;2022-09-02T06:03:20;16.20;99.90
11320;DHT22;5715;48.234;14.320;2022-09-02T06:06:08;16.00;99.90
11320;DHT22;5715;48.234;14.320;2022-09-02T06:08:57;15.90;99.90
11320;DHT22;5715;48.234;14.320;2022-09-02T06:11:46;15.80;99.90
11320;DHT22;5715;48.234;14.320;2022-09-02T06:14:35;15.80;99.90
11320;DHT22;5715;48.234;14.320;2022-09-02T06:17:24;15.80;99.90
11320;DHT22;5715;48.234;14.320;2022-09-02T06:20:11;15.80;99.90
11320;DHT22;5715;48.234;14.320;2022-09-02T06:22:59;15.80;99.90
11320;DHT22;5715;48.234;14.320;2022-09-02T06:25:48;15.80;99.90
11320;DHT22;5715;48.234;14.320;2022-09-02T06:28:36;15.90;99.90
11320;DHT22;5715;48.234;14.320;2022-09-02T06:31:24;15.90;99.90
11320;DHT22;5715;48.234;14.320;2022-09-02T06:34:14;16.00;99.90
11320;DHT22;5715;48.234;14.320;2022-09-02T06:37:04;16.10;99.90
11320;DHT22;5715;48.234;14.320;2022-09-02T06:39:52;16.20;99.90
11320;DHT22;5715;48.234;14.320;2022-09-02T06:42:41;16.20;99.90
11320;DHT22;5715;48.234;14.320;2022-09-02T06:45:29;16.30;99.90
11320;DHT22;5715;48.234;14.320;2022-09-02T06:48:17;16.30;99.90
11320;DHT22;5715;48.234;14.320;2022-09-02T06:51:05;16.30;99.90
11320;DHT22;5715;48.234;14.320;2022-09-02T06:53:53;16.30;99.90
11320;DHT22;5715;48.234;14.320;2022-09-02T06:56:43;16.30;99.90
11320;DHT22;5715;48.234;14.320;2022-09-02T06:59:35;16.40;99.90
11320;DHT22;5715;48.234;14.320;2022-09-02T07:02:24;16.50;99.90
11320;DHT22;5715;48.234;14.320;2022-09-02T07:05:12;16.60;99.90
11320;DHT22;5715;48.234;14.320;2022-09-02T07:08:02;16.70;99.90
11320;DHT22;5715;48.234;14.320;2022-09-02T07:10:50;16.80;99.90
11320;DHT22;5715;48.234;14.320;2022-09-02T07:13:37;16.70;99.90
11320;DHT22;5715;48.234;14.320;2022-09-02T07:16:25;16.70;99.90
11320;DHT22;5715;48.234;14.320;2022-09-02T07:19:18;16.80;99.90
11320;DHT22;5715;48.234;14.320;2022-09-02T07:22:06;16.90;99.90
11320;DHT22;5715;48.234;14.320;2022-09-02T07:24:54;16.90;99.90
11320;DHT22;5715;48.234;14.320;2022-09-02T07:27:43;17.00;99.90
11320;DHT22;5715;48.234;14.320;2022-09-02T07:30:32;17.10;99.90
11320;DHT22;5715;48.234;14.320;2022-09-02T07:33:20;17.30;99.90
11320;DHT22;5715;48.234;14.320;2022-09-02T07:36:09;17.40;99.90
11320;DHT22;5715;48.234;14.320;2022-09-02T07:38:58;17.50;99.90
11320;DHT22;5715;48.234;14.320;2022-09-02T07:41:49;17.60;99.90
11320;DHT22;5715;48.234;14.320;2022-09-02T07:44:37;17.80;99.90
11320;DHT22;5715;48.234;14.320;2022-09-02T07:47:25;17.90;99.90
11320;DHT22;5715;48.234;14.320;2022-09-02T07:50:13;18.00;99.90
11320;DHT22;5715;48.234;14.320;2022-09-02T07:53:05;18.00;99.90
11320;DHT22;5715;48.234;14.320;2022-09-02T07:55:53;18.10;99.90
11320;DHT22;5715;48.234;14.320;2022-09-02T07:58:42;18.20;99.90
11320;DHT22;5715;48.234;14.320;2022-09-02T08:01:31;18.30;99.90
11320;DHT22;5715;48.234;14.320;2022-09-02T08:04:20;18.40;99.90
11320;DHT22;5715;48.234;14.320;2022-09-02T08:07:11;18.40;99.90
11320;DHT22;5715;48.234;14.320;2022-09-02T08:09:58;18.50;99.90
11320;DHT22;5715;48.234;14.320;2022-09-02T08:12:47;18.60;99.90
11320;DHT22;5715;48.234;14.320;2022-09-02T08:15:35;18.80;99.90
11320;DHT22;5715;48.234;14.320;2022-09-02T08:18:23;18.90;99.90
11320;DHT22;5715;48.234;14.320;2022-09-02T08:21:11;18.90;99.90
11320;DHT22;5715;48.234;14.320;2022-09-02T08:24:01;19.00;99.90
11320;DHT22;5715;48.234;14.320;2022-09-02T08:26:49;19.10;99.90
11320;DHT22;5715;48.234;14.320;2022-09-02T08:29:36;19.20;99.90
11320;DHT22;5715;48.234;14.320;2022-09-02T08:32:24;19.40;99.90
11320;DHT22;5715;48.234;14.320;2022-09-02T08:35:12;19.50;99.90
11320;DHT22;5715;48.234;14.320;2022-09-02T08:37:59;19.60;99.90
11320;DHT22;5715;48.234;14.320;2022-09-02T08:40:49;19.50;99.90
11320;DHT22;5715;48.234;14.320;2022-09-02T08:43:42;19.60;99.90
11320;DHT22;5715;48.234;14.320;2022-09-02T08:46:33;19.80;99.90
11320;DHT22;5715;48.234;14.320;2022-09-02T08:49:26;19.90;99.90
11320;DHT22;5715;48.234;14.320;2022-09-02T08:55:22;20.00;99.90
11320;DHT22;5715;48.234;14.320;2022-09-02T08:58:21;20.00;99.90
11320;DHT22;5715;48.234;14.320;2022-09-02T09:01:38;19.80;99.90
11320;DHT22;5715;48.234;14.320;2022-09-02T09:08:15;20.20;99.90
11320;DHT22;5715;48.234;14.320;2022-09-02T09:17:27;20.40;99.90
11320;DHT22;5715;48.234;14.320;2022-09-02T09:20:30;20.50;99.90
11320;DHT22;5715;48.234;14.320;2022-09-02T09:23:49;20.60;99.90
11320;DHT22;5715;48.234;14.320;2022-09-02T09:26:40;20.60;99.90
11320;DHT22;5715;48.234;14.320;2022-09-02T09:29:33;20.60;99.90
11320;DHT22;5715;48.234;14.320;2022-09-02T09:32:31;20.60;99.90
11320;DHT22;5715;48.234;14.320;2022-09-02T09:35:23;20.70;99.90
11320;DHT22;5715;48.234;14.320;2022-09-02T09:38:12;20.70;99.90
11320;DHT22;5715;48.234;14.320;2022-09-02T09:41:18;20.80;99.90
11320;DHT22;5715;48.234;14.320;2022-09-02T09:44:10;20.90;99.90
11320;DHT22;5715;48.234;14.320;2022-09-02T09:47:20;21.00;99.90
11320;DHT22;5715;48.234;14.320;2022-09-02T09:50:15;21.20;99.90
11320;DHT22;5715;48.234;14.320;2022-09-02T09:53:30;21.20;99.90
11320;DHT22;5715;48.234;14.320;2022-09-02T09:56:23;21.30;99.90
11320;DHT22;5715;48.234;14.320;2022-09-02T09:59:43;21.20;99.90
11320;DHT22;5715;48.234;14.320;2022-09-02T10:02:33;21.40;99.90
11320;DHT22;5715;48.234;14.320;2022-09-02T10:11:05;21.60;99.90
11320;DHT22;5715;48.234;14.320;2022-09-02T10:14:10;21.60;99.90
11320;DHT22;5715;48.234;14.320;2022-09-02T10:24:34;21.70;99.90
11320;DHT22;5715;48.234;14.320;2022-09-02T10:31:02;21.80;99.90
11320;DHT22;5715;48.234;14.320;2022-09-02T10:34:15;21.70;99.90
11320;DHT22;5715;48.234;14.320;2022-09-02T10:37:19;21.80;99.90
11320;DHT22;5715;48.234;14.320;2022-09-02T10:40:19;21.80;99.90
11320;DHT22;5715;48.234;14.320;2022-09-02T10:47:02;22.00;99.90
11320;DHT22;5715;48.234;14.320;2022-09-02T10:50:08;22.00;99.90
11320;DHT22;5715;48.234;14.320;2022-09-02T10:53:19;22.20;99.90
11320;DHT22;5715;48.234;14.320;2022-09-02T10:56:26;22.10;99.90
11320;DHT22;5715;48.234;14.320;2022-09-02T11:02:48;22.10;99.90
11320;DHT22;5715;48.234;14.320;2022-09-02T11:05:47;22.20;99.90
11320;DHT22;5715;48.234;14.320;2022-09-02T11:11:38;22.40;99.90
11320;DHT22;5715;48.234;14.320;2022-09-02T11:14:33;22.50;98.40
11320;DHT22;5715;48.234;14.320;2022-09-02T11:17:41;22.60;97.80
11320;DHT22;5715;48.234;14.320;2022-09-02T11:20:42;22.60;99.90
11320;DHT22;5715;48.234;14.320;2022-09-02T11:23:40;22.60;99.50
11320;DHT22;5715;48.234;14.320;2022-09-02T11:26:50;22.60;99.90
11320;DHT22;5715;48.234;14.320;2022-09-02T11:30:19;22.60;99.90
11320;DHT22;5715;48.234;14.320;2022-09-02T11:33:20;22.70;99.90
11320;DHT22;5715;48.234;14.320;2022-09-02T11:36:13;22.70;99.50
11320;DHT22;5715;48.234;14.320;2022-09-02T11:43:19;23.00;99.00
11320;DHT22;5715;48.234;14.320;2022-09-02T11:46:52;23.00;99.50
11320;DHT22;5715;48.234;14.320;2022-09-02T11:53:39;23.30;98.80
11320;DHT22;5715;48.234;14.320;2022-09-02T11:56:35;23.40;97.60
11320;DHT22;5715;48.234;14.320;2022-09-02T12:03:19;23.20;98.80
11320;DHT22;5715;48.234;14.320;2022-09-02T12:06:30;23.30;98.60
11320;DHT22;5715;48.234;14.320;2022-09-02T12:09:45;23.30;99.90
11320;DHT22;5715;48.234;14.320;2022-09-02T12:15:23;23.20;99.90
11320;DHT22;5715;48.234;14.320;2022-09-02T12:18:25;23.30;99.90
11320;DHT22;5715;48.234;14.320;2022-09-02T12:21:15;23.40;99.90
11320;DHT22;5715;48.234;14.320;2022-09-02T12:24:18;23.20;99.60
11320;DHT22;5715;48.234;14.320;2022-09-02T12:27:08;23.20;99.50
11320;DHT22;5715;48.234;14.320;2022-09-02T12:30:07;23.30;99.80
11320;DHT22;5715;48.234;14.320;2022-09-02T12:33:08;23.30;99.70
11320;DHT22;5715;48.234;14.320;2022-09-02T12:35:59;23.20;99.90
11320;DHT22;5715;48.234;14.320;2022-09-02T12:38:51;23.30;99.90
11320;DHT22;5715;48.234;14.320;2022-09-02T12:41:41;23.30;99.70
11320;DHT22;5715;48.234;14.320;2022-09-02T12:44:52;23.40;99.90
11320;DHT22;5715;48.234;14.320;2022-09-02T12:48:10;23.40;98.90
11320;DHT22;5715;48.234;14.320;2022-09-02T12:51:03;23.40;98.60
11320;DHT22;5715;48.234;14.320;2022-09-02T12:53:50;23.40;99.40
11320;DHT22;5715;48.234;14.320;2022-09-02T12:56:49;23.50;98.90
11320;DHT22;5715;48.234;14.320;2022-09-02T12:59:39;23.50;99.40
11320;DHT22;5715;48.234;14.320;2022-09-02T13:12:20;23.50;98.90
11320;DHT22;5715;48.234;14.320;2022-09-02T13:32:37;23.30;99.30
11320;DHT22;5715;48.234;14.320;2022-09-02T13:35:26;23.40;98.50
11320;DHT22;5715;48.234;14.320;2022-09-02T13:38:22;23.50;97.90
11320;DHT22;5715;48.234;14.320;2022-09-02T13:41:27;23.50;97.70
11320;DHT22;5715;48.234;14.320;2022-09-02T13:44:26;23.40;97.90
11320;DHT22;5715;48.234;14.320;2022-09-02T13:47:17;23.40;98.60
11320;DHT22;5715;48.234;14.320;2022-09-02T13:50:09;23.30;98.70
11320;DHT22;5715;48.234;14.320;2022-09-02T13:53:03;23.30;98.20
11320;DHT22;5715;48.234;14.320;2022-09-02T13:56:13;23.30;99.20
11320;DHT22;5715;48.234;14.320;2022-09-02T13:59:03;23.40;98.70
11320;DHT22;5715;48.234;14.320;2022-09-02T14:01:51;23.50;98.70
11320;DHT22;5715;48.234;14.320;2022-09-02T14:04:39;23.40;98.10
11320;DHT22;5715;48.234;14.320;2022-09-02T14:07:40;23.30;98.80
11320;DHT22;5715;48.234;14.320;2022-09-02T14:10:34;23.30;99.20
11320;DHT22;5715;48.234;14.320;2022-09-02T14:13:25;23.40;98.80
11320;DHT22;5715;48.234;14.320;2022-09-02T14:16:43;23.50;98.00
11320;DHT22;5715;48.234;14.320;2022-09-02T14:19:30;23.40;98.80
11320;DHT22;5715;48.234;14.320;2022-09-02T14:22:28;23.40;98.90
11320;DHT22;5715;48.234;14.320;2022-09-02T14:25:17;22.90;98.60
11320;DHT22;5715;48.234;14.320;2022-09-02T14:28:09;23.10;98.40
11320;DHT22;5715;48.234;14.320;2022-09-02T14:31:07;23.20;98.30
11320;DHT22;5715;48.234;14.320;2022-09-02T14:34:35;23.30;98.20
11320;DHT22;5715;48.234;14.320;2022-09-02T14:37:28;23.40;98.00
11320;DHT22;5715;48.234;14.320;2022-09-02T14:40:17;23.30;98.40
11320;DHT22;5715;48.234;14.320;2022-09-02T14:43:16;23.30;98.90
11320;DHT22;5715;48.234;14.320;2022-09-02T14:46:05;23.20;98.90
11320;DHT22;5715;48.234;14.320;2022-09-02T14:52:04;23.30;98.60
11320;DHT22;5715;48.234;14.320;2022-09-02T14:55:05;23.20;98.60
11320;DHT22;5715;48.234;14.320;2022-09-02T14:58:00;23.20;98.30
11320;DHT22;5715;48.234;14.320;2022-09-02T15:00:50;23.20;98.50
11320;DHT22;5715;48.234;14.320;2022-09-02T15:03:41;23.20;98.60
11320;DHT22;5715;48.234;14.320;2022-09-02T15:06:30;23.10;98.60
11320;DHT22;5715;48.234;14.320;2022-09-02T15:09:17;23.00;98.20
11320;DHT22;5715;48.234;14.320;2022-09-02T15:12:05;23.00;98.90
11320;DHT22;5715;48.234;14.320;2022-09-02T15:14:54;23.10;98.40
11320;DHT22;5715;48.234;14.320;2022-09-02T15:17:43;23.10;98.30
11320;DHT22;5715;48.234;14.320;2022-09-02T15:20:31;23.00;98.60
11320;DHT22;5715;48.234;14.320;2022-09-02T15:23:19;22.90;98.50
11320;DHT22;5715;48.234;14.320;2022-09-02T15:26:07;22.80;98.60
11320;DHT22;5715;48.234;14.320;2022-09-02T15:28:55;22.80;98.80
11320;DHT22;5715;48.234;14.320;2022-09-02T15:31:43;22.90;98.50
11320;DHT22;5715;48.234;14.320;2022-09-02T15:34:31;22.90;98.10
11320;DHT22;5715;48.234;14.320;2022-09-02T15:37:18;22.90;98.20
11320;DHT22;5715;48.234;14.320;2022-09-02T15:40:07;22.80;98.60
11320;DHT22;5715;48.234;14.320;2022-09-02T15:42:55;22.70;98.40
11320;DHT22;5715;48.234;14.320;2022-09-02T15:45:45;22.60;98.60
11320;DHT22;5715;48.234;14.320;2022-09-02T15:48:36;22.70;98.60
11320;DHT22;5715;48.234;14.320;2022-09-02T15:51:23;22.70;97.80
11320;DHT22;5715;48.234;14.320;2022-09-02T15:54:13;22.70;98.60
11320;DHT22;5715;48.234;14.320;2022-09-02T15:57:02;22.60;98.40
11320;DHT22;5715;48.234;14.320;2022-09-02T15:59:50;22.60;98.40
11320;DHT22;5715;48.234;14.320;2022-09-02T16:02:37;22.50;98.40
11320;DHT22;5715;48.234;14.320;2022-09-02T16:05:25;22.50;98.50
11320;DHT22;5715;48.234;14.320;2022-09-02T16:08:13;22.50;98.70
11320;DHT22;5715;48.234;14.320;2022-09-02T16:11:05;22.50;98.10
11320;DHT22;5715;48.234;14.320;2022-09-02T16:13:54;22.50;98.70
11320;DHT22;5715;48.234;14.320;2022-09-02T16:16:42;22.40;98.20
11320;DHT22;5715;48.234;14.320;2022-09-02T16:19:29;22.30;98.80
11320;DHT22;5715;48.234;14.320;2022-09-02T16:22:17;22.20;99.20
11320;DHT22;5715;48.234;14.320;2022-09-02T16:25:05;22.20;98.80
11320;DHT22;5715;48.234;14.320;2022-09-02T16:27:53;22.00;99.10
11320;DHT22;5715;48.234;14.320;2022-09-02T16:30:42;21.90;98.50
11320;DHT22;5715;48.234;14.320;2022-09-02T16:33:33;21.80;98.90
11320;DHT22;5715;48.234;14.320;2022-09-02T16:36:22;21.70;99.10
11320;DHT22;5715;48.234;14.320;2022-09-02T16:39:18;21.70;98.80
11320;DHT22;5715;48.234;14.320;2022-09-02T16:42:07;21.70;99.30
11320;DHT22;5715;48.234;14.320;2022-09-02T16:44:54;21.50;99.40
11320;DHT22;5715;48.234;14.320;2022-09-02T16:47:42;21.40;99.70
11320;DHT22;5715;48.234;14.320;2022-09-02T16:50:29;21.30;99.50
11320;DHT22;5715;48.234;14.320;2022-09-02T16:53:17;21.20;99.70
11320;DHT22;5715;48.234;14.320;2022-09-02T16:56:05;21.20;99.90
11320;DHT22;5715;48.234;14.320;2022-09-02T16:58:59;21.10;99.90
11320;DHT22;5715;48.234;14.320;2022-09-02T17:01:48;21.00;99.90
11320;DHT22;5715;48.234;14.320;2022-09-02T17:04:36;20.90;99.90
11320;DHT22;5715;48.234;14.320;2022-09-02T17:07:23;20.70;99.90
11320;DHT22;5715;48.234;14.320;2022-09-02T17:10:11;20.60;99.90
11320;DHT22;5715;48.234;14.320;2022-09-02T17:12:59;20.50;99.90
11320;DHT22;5715;48.234;14.320;2022-09-02T17:15:47;20.50;99.90
11320;DHT22;5715;48.234;14.320;2022-09-02T17:18:35;20.40;99.90
11320;DHT22;5715;48.234;14.320;2022-09-02T17:21:38;20.30;99.90
11320;DHT22;5715;48.234;14.320;2022-09-02T17:24:28;20.20;99.90
11320;DHT22;5715;48.234;14.320;2022-09-02T17:27:17;20.10;99.90
11320;DHT22;5715;48.234;14.320;2022-09-02T17:30:07;20.00;99.90
11320;DHT22;5715;48.234;14.320;2022-09-02T17:32:57;19.90;99.90
11320;DHT22;5715;48.234;14.320;2022-09-02T17:35:57;19.70;99.90
11320;DHT22;5715;48.234;14.320;2022-09-02T17:38:48;19.50;99.90
11320;DHT22;5715;48.234;14.320;2022-09-02T17:41:41;19.30;99.90
11320;DHT22;5715;48.234;14.320;2022-09-02T17:44:41;19.10;99.90
11320;DHT22;5715;48.234;14.320;2022-09-02T17:47:29;19.00;99.90
11320;DHT22;5715;48.234;14.320;2022-09-02T17:50:17;18.80;99.90
11320;DHT22;5715;48.234;14.320;2022-09-02T17:53:05;18.70;99.90
11320;DHT22;5715;48.234;14.320;2022-09-02T17:56:48;18.70;99.90
11320;DHT22;5715;48.234;14.320;2022-09-02T18:03:13;18.40;99.90
11320;DHT22;5715;48.234;14.320;2022-09-02T18:06:18;18.30;99.90
11320;DHT22;5715;48.234;14.320;2022-09-02T18:09:12;18.30;99.90
11320;DHT22;5715;48.234;14.320;2022-09-02T18:12:04;18.20;99.90
11320;DHT22;5715;48.234;14.320;2022-09-02T18:14:57;18.20;99.90
11320;DHT22;5715;48.234;14.320;2022-09-02T18:17:47;18.20;99.90
11320;DHT22;5715;48.234;14.320;2022-09-02T18:20:40;18.00;99.90
11320;DHT22;5715;48.234;14.320;2022-09-02T18:23:48;18.00;99.90
11320;DHT22;5715;48.234;14.320;2022-09-02T18:26:58;17.80;99.90
11320;DHT22;5715;48.234;14.320;2022-09-02T18:30:18;17.70;99.90
11320;DHT22;5715;48.234;14.320;2022-09-02T18:46:10;17.10;99.90
11320;DHT22;5715;48.234;14.320;2022-09-02T18:49:00;17.10;99.90
11320;DHT22;5715;48.234;14.320;2022-09-02T18:51:54;17.00;99.90
11320;DHT22;5715;48.234;14.320;2022-09-02T18:54:49;17.00;99.90
11320;DHT22;5715;48.234;14.320;2022-09-02T18:57:56;17.00;99.90
11320;DHT22;5715;48.234;14.320;2022-09-02T19:00:52;16.90;99.90
11320;DHT22;5715;48.234;14.320;2022-09-02T19:03:41;16.90;99.90
11320;DHT22;5715;48.234;14.320;2022-09-02T19:06:31;16.90;99.90
11320;DHT22;5715;48.234;14.320;2022-09-02T19:09:23;16.80;99.90
11320;DHT22;5715;48.234;14.320;2022-09-02T19:12:12;16.80;99.90
11320;DHT22;5715;48.234;14.320;2022-09-02T19:15:01;16.70;99.90
11320;DHT22;5715;48.234;14.320;2022-09-02T19:17:52;16.60;99.90
11320;DHT22;5715;48.234;14.320;2022-09-02T19:20:40;16.70;99.90
11320;DHT22;5715;48.234;14.320;2022-09-02T19:23:28;16.60;99.90
11320;DHT22;5715;48.234;14.320;2022-09-02T19:26:17;16.60;99.90
11320;DHT22;5715;48.234;14.320;2022-09-02T19:29:06;16.60;99.90
11320;DHT22;5715;48.234;14.320;2022-09-02T19:31:56;16.50;99.90
11320;DHT22;5715;48.234;14.320;2022-09-02T19:34:44;16.50;99.90
11320;DHT22;5715;48.234;14.320;2022-09-02T19:37:32;16.50;99.90
11320;DHT22;5715;48.234;14.320;2022-09-02T19:40:25;16.50;99.90
11320;DHT22;5715;48.234;14.320;2022-09-02T19:43:19;16.40;99.90
11320;DHT22;5715;48.234;14.320;2022-09-02T19:46:07;16.40;99.90
11320;DHT22;5715;48.234;14.320;2022-09-02T19:49:16;16.40;99.90